Time;durP1;ratioP1;P1;durP2;ratioP2;P2;SDS_P1;SDS_P2;PMS_P1;PMS_P2;Temp;Humidity;BMP_temperature;BMP_pressure;BME280_temperature;BME280_humidity;BME280_pressure;Samples;Min_cycle;Max_cycle;Signal;HPM_P1;HPM_P2
2021/12/17 00:01:00;;;;;;;41.60;17.55;;;;;;;;;;5049017;28;20640;-71
2021/12/17 00:03:42;;;;;;;24.83;15.38;;;;;;;;;;5044272;28;20211;-71
2021/12/17 00:06:17;;;;;;;33.13;14.93;;;;;;;;;;5056162;28;20191;-71
2021/12/17 00:08:46;;;;;;;24.30;15.43;;;;;;;;;;5046798;28;20612;-73
2021/12/17 00:11:13;;;;;;;31.33;16.88;;;;;;;;;;5047311;28;20206;-74
2021/12/17 00:13:43;;;;;;;32.70;17.73;;;;;;;;;;5052532;28;20205;-74
2021/12/17 00:16:15;;;;;;;28.90;14.45;;;;;;;;;;5050761;28;20214;-75
2021/12/17 00:18:56;;;;;;;30.92;15.77;;;;;;;;;;5046640;28;20713;-74
2021/12/17 00:49:18;;;;;;;24.83;15.30;;;;;;;;;;5049944;28;20210;-74
2021/12/17 00:51:59;;;;;;;23.48;14.68;;;;;;;;;;5054798;28;20206;-75
2021/12/17 00:54:33;;;;;;;32.03;16.40;;;;;;;;;;5049647;28;20187;-74
2021/12/17 00:57:01;;;;;;;31.73;16.10;;;;;;;;;;5052371;28;20205;-75
2021/12/17 00:59:29;;;;;;;35.63;18.15;;;;;;;;;;5048928;28;20217;-75
2021/12/17 01:01:58;;;;;;;32.00;19.17;;;;;;;;;;5048389;28;20199;-75
2021/12/17 01:04:25;;;;;;;32.67;18.02;;;;;;;;;;5051236;28;20222;-74
2021/12/17 01:06:53;;;;;;;31.75;18.17;;;;;;;;;;5051596;28;20209;-75
2021/12/17 01:09:22;;;;;;;30.25;16.55;;;;;;;;;;5047853;28;20195;-76
2021/12/17 01:11:49;;;;;;;31.88;17.83;;;;;;;;;;5054186;28;20777;-75
2021/12/17 01:14:16;;;;;;;28.83;17.05;;;;;;;;;;5059580;28;20544;-75
2021/12/17 01:16:43;;;;;;;32.33;17.35;;;;;;;;;;5055019;28;20217;-75
2021/12/17 01:19:20;;;;;;;28.63;16.25;;;;;;;;;;5063605;28;20198;-75
2021/12/17 01:22:01;;;;;;;31.25;15.73;;;;;;;;;;5049897;28;20210;-76
2021/12/17 01:24:43;;;;;;;26.90;15.18;;;;;;;;;;5052978;28;20226;-75
2021/12/17 01:35:28;;;;;;;31.55;18.48;;;;;;;;;;5048981;28;20233;-75
2021/12/17 01:38:58;;;;;;;38.25;19.38;;;;;;;;;;5057648;28;20203;-77
2021/12/17 01:41:18;;;;;;;27.20;15.98;;;;;;;;;;5059031;28;20293;-74
2021/12/17 01:43:48;;;;;;;35.10;16.85;;;;;;;;;;5048059;28;20538;-74
2021/12/17 01:46:21;;;;;;;41.78;21.00;;;;;;;;;;5050055;28;20309;-75
2021/12/17 01:49:00;;;;;;;31.33;18.50;;;;;;;;;;5055101;28;20195;-75
2021/12/17 01:59:18;;;;;;;30.25;17.98;;;;;;;;;;5054713;28;20200;-75
2021/12/17 01:59:45;;;;;;;26.88;17.33;;;;;;;;;;5050763;28;20232;-76
2021/12/17 02:02:12;;;;;;;28.33;16.23;;;;;;;;;;5058292;28;20539;-76
2021/12/17 02:04:40;;;;;;;26.05;16.33;;;;;;;;;;5049653;28;20677;-75
2021/12/17 02:07:08;;;;;;;28.38;16.02;;;;;;;;;;5050445;28;20297;-75
2021/12/17 02:12:35;;;;;;;28.50;16.27;;;;;;;;;;5052137;28;20245;-76
2021/12/17 02:29:00;;;;;;;25.00;15.27;;;;;;;;;;5042218;28;20194;-75
2021/12/17 02:31:29;;;;;;;28.73;16.95;;;;;;;;;;5055544;28;20198;-76
2021/12/17 02:33:59;;;;;;;26.67;14.55;;;;;;;;;;5050800;28;20202;-75
2021/12/17 02:36:31;;;;;;;29.75;14.93;;;;;;;;;;5051023;28;20205;-74
2021/12/17 02:39:13;;;;;;;27.92;16.23;;;;;;;;;;5049037;28;20293;-74
2021/12/17 02:47:09;;;;;;;23.65;13.95;;;;;;;;;;5037732;28;20226;-75
2021/12/17 02:49:38;;;;;;;29.40;17.00;;;;;;;;;;5039776;28;20191;-76
2021/12/17 02:52:07;;;;;;;26.02;13.40;;;;;;;;;;5040521;28;20210;-76
2021/12/17 02:54:35;;;;;;;31.48;14.82;;;;;;;;;;5041404;28;20195;-77
2021/12/17 02:57:02;;;;;;;23.35;13.77;;;;;;;;;;5041370;28;20203;-75
2021/12/17 02:59:29;;;;;;;25.33;15.45;;;;;;;;;;5042684;28;20233;-77
2021/12/17 03:01:57;;;;;;;24.95;14.75;;;;;;;;;;5040485;28;20207;-74
2021/12/17 03:04:25;;;;;;;22.15;13.50;;;;;;;;;;5038235;28;20202;-75
2021/12/17 03:06:53;;;;;;;23.05;13.88;;;;;;;;;;5041109;28;20204;-77
2021/12/17 03:09:33;;;;;;;26.58;14.77;;;;;;;;;;5041096;28;20647;-75
2021/12/17 03:12:01;;;;;;;22.23;14.27;;;;;;;;;;5041275;28;20206;-76
2021/12/17 03:14:29;;;;;;;22.38;13.93;;;;;;;;;;5042348;28;20206;-76
2021/12/17 03:17:05;;;;;;;23.48;13.55;;;;;;;;;;5039429;28;20206;-75
2021/12/17 03:23:26;;;;;;;25.25;15.07;;;;;;;;;;5049310;28;20202;-74
2021/12/17 03:25:15;;;;;;;25.13;12.38;;;;;;;;;;5060902;28;20228;-75
2021/12/17 03:27:42;;;;;;;20.98;13.43;;;;;;;;;;5049565;28;20191;-79
2021/12/17 03:30:10;;;;;;;20.25;13.10;;;;;;;;;;5055820;28;20210;-76
2021/12/17 03:32:37;;;;;;;25.58;16.38;;;;;;;;;;5050013;28;20199;-76
2021/12/17 03:35:04;;;;;;;25.00;15.65;;;;;;;;;;5051955;28;20555;-76
2021/12/17 03:37:31;;;;;;;22.75;15.07;;;;;;;;;;5065223;28;20190;-75
2021/12/17 03:39:58;;;;;;;20.48;14.35;;;;;;;;;;5047201;28;20195;-76
2021/12/17 03:42:26;;;;;;;21.27;13.63;;;;;;;;;;5048421;28;20199;-76
2021/12/17 03:44:53;;;;;;;24.83;14.43;;;;;;;;;;5053164;28;20223;-75
2021/12/17 03:47:20;;;;;;;20.05;12.73;;;;;;;;;;5049666;28;20191;-77
2021/12/17 03:49:48;;;;;;;23.98;15.05;;;;;;;;;;5052990;28;20199;-75
2021/12/17 03:52:16;;;;;;;19.33;13.13;;;;;;;;;;5061447;28;20286;-77
2021/12/17 03:54:43;;;;;;;26.00;16.70;;;;;;;;;;5044772;28;20736;-76
2021/12/17 03:57:15;;;;;;;27.02;16.25;;;;;;;;;;5045562;28;20202;-76
2021/12/17 03:59:44;;;;;;;25.55;14.30;;;;;;;;;;5044150;28;20215;-75
2021/12/17 04:02:11;;;;;;;19.95;13.43;;;;;;;;;;5044142;28;20194;-77
2021/12/17 04:04:38;;;;;;;22.05;15.00;;;;;;;;;;5044088;28;20666;-76
2021/12/17 04:07:05;;;;;;;21.48;13.98;;;;;;;;;;5044894;28;20558;-76
2021/12/17 04:09:32;;;;;;;17.70;11.45;;;;;;;;;;5044009;28;20662;-75
2021/12/17 04:12:01;;;;;;;20.45;13.02;;;;;;;;;;5044077;28;20303;-76
2021/12/17 04:14:35;;;;;;;20.33;13.48;;;;;;;;;;5045023;28;20207;-75
2021/12/17 04:17:05;;;;;;;18.55;12.23;;;;;;;;;;5047138;28;20199;-76
2021/12/17 04:19:32;;;;;;;22.00;12.80;;;;;;;;;;5043813;28;20202;-74
2021/12/17 04:21:59;;;;;;;21.40;13.73;;;;;;;;;;5044878;28;20198;-76
2021/12/17 04:24:27;;;;;;;23.40;14.25;;;;;;;;;;5044151;28;20202;-74
2021/12/17 04:26:54;;;;;;;24.10;16.02;;;;;;;;;;5041435;28;20221;-76
2021/12/17 04:29:22;;;;;;;23.00;13.85;;;;;;;;;;5044605;28;20218;-75
2021/12/17 04:31:53;;;;;;;27.02;16.48;;;;;;;;;;5053608;28;20674;-75
2021/12/17 04:34:22;;;;;;;24.08;15.15;;;;;;;;;;5048376;28;20653;-75
2021/12/17 04:36:52;;;;;;;29.40;15.57;;;;;;;;;;5055739;28;20427;-75
2021/12/17 04:39:21;;;;;;;25.58;15.35;;;;;;;;;;5043983;28;20206;-75
2021/12/17 04:41:53;;;;;;;28.25;17.50;;;;;;;;;;5043110;28;20195;-75
2021/12/17 04:44:23;;;;;;;24.38;14.27;;;;;;;;;;5045810;28;20577;-76
2021/12/17 04:46:58;;;;;;;27.80;15.18;;;;;;;;;;5044430;28;20254;-76
2021/12/17 04:57:56;;;;;;;31.27;18.00;;;;;;;;;;4999470;28;20727;-76
2021/12/17 05:00:25;;;;;;;21.55;14.68;;;;;;;;;;5040030;28;20215;-76
2021/12/17 05:02:54;;;;;;;20.35;13.05;;;;;;;;;;5043452;28;20565;-76
2021/12/17 05:05:26;;;;;;;22.05;14.82;;;;;;;;;;5045649;28;20221;-75
2021/12/17 05:07:56;;;;;;;21.65;14.05;;;;;;;;;;5043477;28;20666;-75
2021/12/17 05:10:31;;;;;;;22.25;14.35;;;;;;;;;;5042652;28;20194;-75
2021/12/17 05:18:30;;;;;;;19.40;12.70;;;;;;;;;;5045049;28;20186;-78
2021/12/17 05:21:02;;;;;;;20.33;12.70;;;;;;;;;;5057452;28;20207;-76
2021/12/17 05:23:31;;;;;;;22.65;15.38;;;;;;;;;;5055586;28;20199;-76
2021/12/17 05:25:59;;;;;;;16.70;10.77;;;;;;;;;;5070946;28;20221;-77
2021/12/17 05:28:27;;;;;;;19.40;14.02;;;;;;;;;;5050208;28;20290;-76
2021/12/17 05:30:56;;;;;;;15.65;11.02;;;;;;;;;;5050710;28;20218;-77
2021/12/17 05:33:23;;;;;;;18.25;11.52;;;;;;;;;;5044873;28;20324;-75
2021/12/17 05:35:50;;;;;;;16.55;11.40;;;;;;;;;;5052241;28;20670;-76
2021/12/17 05:38:19;;;;;;;17.00;11.55;;;;;;;;;;5048894;28;20206;-76
2021/12/17 05:40:47;;;;;;;18.90;12.23;;;;;;;;;;5048079;28;20206;-76
2021/12/17 05:43:15;;;;;;;26.13;13.73;;;;;;;;;;5051339;28;20194;-76
2021/12/17 05:45:50;;;;;;;16.25;12.63;;;;;;;;;;5049169;28;20698;-75
2021/12/17 05:48:19;;;;;;;17.88;11.82;;;;;;;;;;5050655;28;20201;-76
2021/12/17 05:50:47;;;;;;;19.17;12.07;;;;;;;;;;5063945;28;20324;-75
2021/12/17 05:53:14;;;;;;;18.73;10.93;;;;;;;;;;5044294;28;20200;-77
2021/12/17 05:55:43;;;;;;;16.08;12.00;;;;;;;;;;5050624;28;20198;-74
2021/12/17 05:58:10;;;;;;;16.92;9.82;;;;;;;;;;5045307;28;20202;-75
2021/12/17 06:00:39;;;;;;;15.98;10.70;;;;;;;;;;5044968;28;20226;-74
2021/12/17 06:03:06;;;;;;;17.00;10.70;;;;;;;;;;5040362;28;20203;-75
2021/12/17 06:05:33;;;;;;;13.25;10.20;;;;;;;;;;5048993;28;20203;-75
2021/12/17 06:08:00;;;;;;;15.20;11.07;;;;;;;;;;5046065;28;20198;-76
2021/12/17 06:10:28;;;;;;;15.30;10.20;;;;;;;;;;5037452;28;20647;-75
2021/12/17 06:12:56;;;;;;;18.30;11.13;;;;;;;;;;5041958;28;20210;-75
2021/12/17 06:15:23;;;;;;;14.93;10.15;;;;;;;;;;5046674;28;20204;-74
2021/12/17 06:17:52;;;;;;;15.32;10.38;;;;;;;;;;5046269;28;20207;-75
2021/12/17 06:20:20;;;;;;;15.32;11.20;;;;;;;;;;5057132;28;20634;-75
2021/12/17 06:22:48;;;;;;;12.38;9.40;;;;;;;;;;5050947;28;20190;-74
2021/12/17 06:25:15;;;;;;;15.35;10.45;;;;;;;;;;5049937;28;20214;-75
2021/12/17 06:27:43;;;;;;;13.65;10.50;;;;;;;;;;5052536;28;20225;-74
2021/12/17 06:30:12;;;;;;;13.88;10.20;;;;;;;;;;5055540;28;20224;-75
2021/12/17 06:32:39;;;;;;;14.80;10.52;;;;;;;;;;5049480;28;20205;-74
2021/12/17 06:35:07;;;;;;;14.75;10.38;;;;;;;;;;5047130;28;20210;-75
2021/12/17 06:37:34;;;;;;;16.15;10.23;;;;;;;;;;5051055;28;20199;-75
2021/12/17 06:40:02;;;;;;;16.48;11.30;;;;;;;;;;5047006;28;20202;-75
2021/12/17 06:42:30;;;;;;;13.35;10.65;;;;;;;;;;5050348;28;20270;-75
2021/12/17 06:45:01;;;;;;;16.48;10.65;;;;;;;;;;5050715;28;20209;-75
2021/12/17 06:47:32;;;;;;;15.85;11.20;;;;;;;;;;5051639;28;20225;-76
2021/12/17 06:54:36;;;;;;;14.85;11.60;;;;;;;;;;5048782;28;20199;-74
2021/12/17 06:55:57;;;;;;;14.48;10.80;;;;;;;;;;5046099;28;20206;-75
2021/12/17 07:01:15;;;;;;;13.85;9.55;;;;;;;;;;5041960;28;20211;-75
2021/12/17 07:06:51;;;;;;;13.20;10.15;;;;;;;;;;5045861;28;20680;-77
2021/12/17 07:09:57;;;;;;;18.05;11.63;;;;;;;;;;5043087;28;20321;-76
2021/12/17 07:18:28;;;;;;;9.60;8.13;;;;;;;;;;5037536;28;20268;-75
2021/12/17 07:21:13;;;;;;;12.90;8.68;;;;;;;;;;5054517;28;20294;-75
2021/12/17 07:35:24;;;;;;;13.38;8.98;;;;;;;;;;5017051;28;20226;-76
2021/12/17 07:40:37;;;;;;;11.70;8.70;;;;;;;;;;5026880;28;20194;-76
2021/12/17 07:43:11;;;;;;;10.60;8.43;;;;;;;;;;5055839;28;20684;-74
2021/12/17 07:45:38;;;;;;;11.27;7.80;;;;;;;;;;5057175;28;20293;-75
2021/12/17 07:48:05;;;;;;;12.95;8.00;;;;;;;;;;5046534;28;20205;-75
2021/12/17 07:50:32;;;;;;;10.70;7.28;;;;;;;;;;5052768;28;20198;-75
2021/12/17 07:53:01;;;;;;;10.40;6.57;;;;;;;;;;5058610;28;20199;-75
2021/12/17 07:55:28;;;;;;;12.07;9.07;;;;;;;;;;5048885;28;20208;-74
2021/12/17 07:57:55;;;;;;;10.57;7.95;;;;;;;;;;5053414;28;20241;-74
2021/12/17 08:00:22;;;;;;;9.60;6.88;;;;;;;;;;5049524;28;20262;-74
2021/12/17 08:02:49;;;;;;;8.73;7.28;;;;;;;;;;5043977;28;20206;-75
2021/12/17 08:05:17;;;;;;;9.10;6.97;;;;;;;;;;5042379;28;20202;-73
2021/12/17 08:07:45;;;;;;;12.77;8.57;;;;;;;;;;5045199;28;20309;-75
2021/12/17 08:10:13;;;;;;;8.45;6.95;;;;;;;;;;5047555;28;20210;-74
2021/12/17 08:12:40;;;;;;;9.77;6.97;;;;;;;;;;5049335;28;20678;-74
2021/12/17 08:15:10;;;;;;;17.10;7.35;;;;;;;;;;5052191;28;20210;-76
2021/12/17 08:17:54;;;;;;;10.98;7.13;;;;;;;;;;5039278;28;20244;-75
2021/12/17 08:23:30;;;;;;;11.13;7.80;;;;;;;;;;5047463;28;20284;-76
2021/12/17 08:26:04;;;;;;;11.95;7.35;;;;;;;;;;5053011;28;20555;-75
2021/12/17 08:28:51;;;;;;;9.93;7.20;;;;;;;;;;5038918;28;20241;-75
2021/12/17 08:31:18;;;;;;;10.65;6.78;;;;;;;;;;5054717;28;20209;-77
2021/12/17 08:33:45;;;;;;;8.73;7.18;;;;;;;;;;5050468;28;20230;-74
2021/12/17 08:36:14;;;;;;;10.23;7.25;;;;;;;;;;5043999;28;20659;-74
2021/12/17 08:38:41;;;;;;;11.63;7.50;;;;;;;;;;5043713;28;20200;-75
2021/12/17 08:41:10;;;;;;;8.93;7.95;;;;;;;;;;5046263;28;20202;-75
2021/12/17 08:43:37;;;;;;;10.80;7.65;;;;;;;;;;5059240;28;20195;-75
2021/12/17 08:46:04;;;;;;;9.50;6.90;;;;;;;;;;5062512;28;20202;-75
2021/12/17 08:48:31;;;;;;;11.80;8.85;;;;;;;;;;5051200;28;20658;-73
2021/12/17 08:50:59;;;;;;;11.68;7.80;;;;;;;;;;5050719;28;20574;-73
2021/12/17 08:53:26;;;;;;;8.80;7.13;;;;;;;;;;5044577;28;20195;-74
2021/12/17 08:55:53;;;;;;;13.45;7.97;;;;;;;;;;5065430;28;20198;-74
2021/12/17 08:58:22;;;;;;;10.20;7.10;;;;;;;;;;5058267;28;20602;-74
2021/12/17 09:00:49;;;;;;;9.32;7.82;;;;;;;;;;5049689;28;20567;-74
2021/12/17 09:03:16;;;;;;;9.73;6.97;;;;;;;;;;5058188;28;20685;-74
2021/12/17 09:05:44;;;;;;;9.52;7.03;;;;;;;;;;5050488;28;20187;-74
2021/12/17 09:08:12;;;;;;;9.05;6.93;;;;;;;;;;5045795;28;20594;-74
2021/12/17 09:10:40;;;;;;;8.07;6.32;;;;;;;;;;5052736;28;20203;-74
2021/12/17 09:13:07;;;;;;;11.52;7.05;;;;;;;;;;5048830;28;20589;-74
2021/12/17 09:15:35;;;;;;;11.27;7.78;;;;;;;;;;5046645;28;20679;-74
2021/12/17 09:18:03;;;;;;;13.55;8.02;;;;;;;;;;5054049;28;20664;-75
2021/12/17 09:20:30;;;;;;;8.73;7.03;;;;;;;;;;5058896;28;20210;-74
2021/12/17 09:22:57;;;;;;;11.57;6.88;;;;;;;;;;5052489;28;20639;-76
2021/12/17 09:25:24;;;;;;;9.13;7.10;;;;;;;;;;5059124;28;20662;-74
2021/12/17 09:27:51;;;;;;;11.70;7.75;;;;;;;;;;5058835;28;20221;-74
2021/12/17 09:30:19;;;;;;;10.00;6.47;;;;;;;;;;5042087;28;20199;-75
2021/12/17 09:32:48;;;;;;;12.75;7.45;;;;;;;;;;5048468;28;20209;-74
2021/12/17 09:35:15;;;;;;;10.98;7.38;;;;;;;;;;5045982;28;20209;-75
2021/12/17 09:37:42;;;;;;;9.10;6.85;;;;;;;;;;5044797;28;20192;-75
2021/12/17 09:40:11;;;;;;;8.95;6.63;;;;;;;;;;5049298;28;20207;-76
2021/12/17 09:42:39;;;;;;;7.93;6.43;;;;;;;;;;5051664;28;20673;-74
2021/12/17 09:45:07;;;;;;;8.07;6.05;;;;;;;;;;5050868;28;20191;-74
2021/12/17 09:47:34;;;;;;;7.93;6.70;;;;;;;;;;5055183;28;20218;-75
2021/12/17 09:50:02;;;;;;;8.13;6.20;;;;;;;;;;5060044;28;20195;-75
2021/12/17 09:52:29;;;;;;;6.25;5.65;;;;;;;;;;5051713;28;20676;-76
2021/12/17 09:54:57;;;;;;;7.88;5.43;;;;;;;;;;5062348;28;20193;-74
2021/12/17 09:57:25;;;;;;;7.38;5.35;;;;;;;;;;5049346;28;20195;-74
2021/12/17 09:59:53;;;;;;;7.97;5.13;;;;;;;;;;5043906;28;20218;-74
2021/12/17 10:02:20;;;;;;;6.57;5.35;;;;;;;;;;5046727;28;20200;-75
2021/12/17 10:04:47;;;;;;;8.15;5.45;;;;;;;;;;5051916;28;20201;-76
2021/12/17 10:07:20;;;;;;;10.20;6.32;;;;;;;;;;5051271;28;20222;-74
2021/12/17 10:09:47;;;;;;;5.60;4.65;;;;;;;;;;5042144;28;20465;-74
2021/12/17 10:12:16;;;;;;;5.63;5.00;;;;;;;;;;5056121;28;20209;-74
2021/12/17 10:14:43;;;;;;;8.93;5.97;;;;;;;;;;5051122;28;20233;-74
2021/12/17 10:17:11;;;;;;;8.32;5.35;;;;;;;;;;5051338;28;20206;-74
2021/12/17 10:19:42;;;;;;;7.93;5.57;;;;;;;;;;5053929;28;20203;-75
2021/12/17 10:22:10;;;;;;;8.23;5.65;;;;;;;;;;5051585;28;20202;-73
2021/12/17 10:24:39;;;;;;;7.00;4.80;;;;;;;;;;5044988;28;20543;-75
2021/12/17 10:27:19;;;;;;;7.25;5.28;;;;;;;;;;5048873;28;20238;-74
2021/12/17 10:29:46;;;;;;;9.35;5.50;;;;;;;;;;5047537;28;20609;-74
2021/12/17 10:32:17;;;;;;;6.20;4.60;;;;;;;;;;5043065;28;20578;-77
2021/12/17 10:34:59;;;;;;;7.40;5.55;;;;;;;;;;5052062;28;20554;-77
2021/12/17 10:37:32;;;;;;;8.35;6.03;;;;;;;;;;5041051;28;20209;-75
2021/12/17 10:40:00;;;;;;;7.90;6.07;;;;;;;;;;5042950;28;20195;-75
2021/12/17 10:42:32;;;;;;;6.63;5.40;;;;;;;;;;5056773;28;20239;-74
2021/12/17 10:45:03;;;;;;;7.50;5.38;;;;;;;;;;5047157;28;20397;-75
2021/12/17 10:47:35;;;;;;;7.07;5.25;;;;;;;;;;5042298;28;20313;-74
2021/12/17 10:50:03;;;;;;;7.03;5.63;;;;;;;;;;5053638;28;20292;-74
2021/12/17 10:52:36;;;;;;;9.43;5.95;;;;;;;;;;5052612;28;20612;-75
2021/12/17 10:55:13;;;;;;;6.32;4.90;;;;;;;;;;5048889;28;20202;-75
2021/12/17 10:57:40;;;;;;;8.90;5.97;;;;;;;;;;5055765;28;20187;-77
2021/12/17 11:00:08;;;;;;;8.05;5.30;;;;;;;;;;5046799;28;20229;-75
2021/12/17 11:02:37;;;;;;;6.35;5.70;;;;;;;;;;5050062;28;20210;-75
2021/12/17 11:05:11;;;;;;;5.13;4.10;;;;;;;;;;5052219;28;20651;-75
2021/12/17 11:07:39;;;;;;;5.05;4.45;;;;;;;;;;5041193;28;20221;-76
2021/12/17 11:10:07;;;;;;;6.13;5.03;;;;;;;;;;5050258;28;20493;-75
2021/12/17 11:12:36;;;;;;;6.45;5.20;;;;;;;;;;5046750;28;20218;-76
2021/12/17 11:15:14;;;;;;;8.48;5.60;;;;;;;;;;5058785;28;20208;-78
2021/12/17 11:17:42;;;;;;;6.90;4.50;;;;;;;;;;5038708;28;20260;-75
2021/12/17 11:20:10;;;;;;;5.60;4.55;;;;;;;;;;5027853;28;20199;-75
2021/12/17 11:22:38;;;;;;;8.50;4.70;;;;;;;;;;5040056;28;20194;-75
2021/12/17 11:25:05;;;;;;;5.25;4.45;;;;;;;;;;5045873;28;20294;-76
2021/12/17 11:27:33;;;;;;;6.30;5.70;;;;;;;;;;5057895;28;20222;-76
2021/12/17 11:30:02;;;;;;;7.65;5.60;;;;;;;;;;5050714;28;20657;-73
2021/12/17 11:32:29;;;;;;;10.02;5.82;;;;;;;;;;5037142;28;20268;-76
2021/12/17 11:34:56;;;;;;;7.20;6.07;;;;;;;;;;5047654;28;20436;-75
2021/12/17 11:37:25;;;;;;;6.57;5.50;;;;;;;;;;5050634;28;20678;-76
2021/12/17 11:40:01;;;;;;;6.45;5.10;;;;;;;;;;5046876;28;20634;-75
2021/12/17 11:42:37;;;;;;;7.00;5.93;;;;;;;;;;5051450;28;20485;-76
2021/12/17 11:45:25;;;;;;;6.57;5.78;;;;;;;;;;5054348;28;20200;-75
2021/12/17 11:47:53;;;;;;;7.03;5.80;;;;;;;;;;5037088;28;20214;-75
2021/12/17 11:50:20;;;;;;;9.63;5.97;;;;;;;;;;5047936;28;20202;-75
2021/12/17 11:52:48;;;;;;;6.03;4.95;;;;;;;;;;5056058;28;20234;-76
2021/12/17 11:55:28;;;;;;;6.82;6.22;;;;;;;;;;5044498;28;20196;-76
2021/12/17 11:57:57;;;;;;;6.80;5.90;;;;;;;;;;5048210;28;20202;-76
2021/12/17 12:00:30;;;;;;;8.77;5.68;;;;;;;;;;5047493;28;20268;-75
2021/12/17 12:03:12;;;;;;;6.05;4.78;;;;;;;;;;5043464;28;20214;-75
2021/12/17 12:05:41;;;;;;;7.63;4.93;;;;;;;;;;5055018;28;20570;-76
2021/12/17 12:08:28;;;;;;;5.95;5.07;;;;;;;;;;5045990;28;20708;-75
2021/12/17 12:11:04;;;;;;;4.90;4.13;;;;;;;;;;5054386;28;20687;-75
2021/12/17 12:13:35;;;;;;;5.72;4.72;;;;;;;;;;5066977;28;20203;-76
2021/12/17 12:16:05;;;;;;;6.05;4.25;;;;;;;;;;5049981;28;20203;-76
2021/12/17 12:18:43;;;;;;;7.47;4.60;;;;;;;;;;5051918;28;20186;-77
2021/12/17 12:21:11;;;;;;;4.25;3.70;;;;;;;;;;5063334;28;20232;-76
2021/12/17 12:23:43;;;;;;;4.05;3.60;;;;;;;;;;5059055;28;20199;-75
2021/12/17 12:26:17;;;;;;;4.15;3.72;;;;;;;;;;5061701;28;20206;-74
2021/12/17 12:28:53;;;;;;;5.45;4.30;;;;;;;;;;5056685;28;20222;-74
2021/12/17 12:31:39;;;;;;;5.93;3.90;;;;;;;;;;5057127;28;20738;-74
2021/12/17 12:34:09;;;;;;;3.13;2.83;;;;;;;;;;5047816;28;20681;-74
2021/12/17 12:36:46;;;;;;;7.32;4.95;;;;;;;;;;5060662;28;20249;-75
2021/12/17 12:39:15;;;;;;;4.20;3.80;;;;;;;;;;5045898;28;20738;-74
2021/12/17 12:41:43;;;;;;;5.68;4.50;;;;;;;;;;5060008;28;20198;-74
2021/12/17 12:44:10;;;;;;;6.07;4.40;;;;;;;;;;5046740;28;20191;-75
2021/12/17 12:46:49;;;;;;;4.60;4.20;;;;;;;;;;5061269;28;20692;-74
2021/12/17 12:49:31;;;;;;;4.50;4.03;;;;;;;;;;5047855;28;20582;-75
2021/12/17 12:52:13;;;;;;;4.00;3.60;;;;;;;;;;5052838;28;20203;-75
2021/12/17 12:54:41;;;;;;;4.65;3.55;;;;;;;;;;5050964;28;20194;-75
2021/12/17 12:57:08;;;;;;;3.97;3.40;;;;;;;;;;5057693;28;20222;-75
2021/12/17 12:59:36;;;;;;;4.05;3.60;;;;;;;;;;5049907;28;20222;-75
2021/12/17 13:02:03;;;;;;;5.50;4.55;;;;;;;;;;5049509;28;20191;-75
2021/12/17 13:04:31;;;;;;;5.00;3.92;;;;;;;;;;5051200;28;20203;-75
2021/12/17 13:06:58;;;;;;;5.72;5.13;;;;;;;;;;5061230;28;20210;-76
2021/12/17 13:09:29;;;;;;;4.63;3.60;;;;;;;;;;5043452;28;20225;-75
2021/12/17 13:11:58;;;;;;;3.30;2.97;;;;;;;;;;5057995;28;20760;-77
2021/12/17 13:14:26;;;;;;;4.15;3.75;;;;;;;;;;5051004;28;20202;-75
2021/12/17 13:17:17;;;;;;;4.25;3.90;;;;;;;;;;5044295;28;20206;-75
2021/12/17 13:20:30;;;;;;;5.82;4.47;;;;;;;;;;5056213;28;20198;-74
2021/12/17 13:23:01;;;;;;;4.88;4.38;;;;;;;;;;5037681;28;20682;-75
2021/12/17 13:25:31;;;;;;;4.72;4.28;;;;;;;;;;5041544;28;20581;-75
2021/12/17 13:28:01;;;;;;;7.07;4.18;;;;;;;;;;5054504;28;20225;-76
2021/12/17 13:30:29;;;;;;;5.45;4.20;;;;;;;;;;5044901;28;20567;-77
2021/12/17 13:32:56;;;;;;;5.13;3.85;;;;;;;;;;5050713;28;20214;-77
2021/12/17 13:35:24;;;;;;;12.10;4.65;;;;;;;;;;5070952;28;20203;-78
2021/12/17 13:37:52;;;;;;;6.28;4.93;;;;;;;;;;5059839;28;20194;-78
2021/12/17 13:40:23;;;;;;;10.25;4.25;;;;;;;;;;5055183;28;20206;-78
2021/12/17 13:42:51;;;;;;;4.97;4.20;;;;;;;;;;5039108;28;20249;-76
2021/12/17 13:45:21;;;;;;;5.40;4.85;;;;;;;;;;5041143;28;20206;-77
2021/12/17 13:47:48;;;;;;;5.03;4.40;;;;;;;;;;5048925;28;20302;-77
2021/12/17 13:50:19;;;;;;;4.40;3.55;;;;;;;;;;5054932;28;20198;-77
2021/12/17 13:52:48;;;;;;;8.63;4.18;;;;;;;;;;5052338;28;20193;-76
2021/12/17 13:55:16;;;;;;;4.25;3.85;;;;;;;;;;5046534;28;21043;-76
2021/12/17 13:57:43;;;;;;;4.47;3.47;;;;;;;;;;5061656;28;20654;-77
2021/12/17 14:00:12;;;;;;;5.35;4.25;;;;;;;;;;5069910;28;20226;-77
2021/12/17 14:02:41;;;;;;;4.97;4.05;;;;;;;;;;5043791;28;20211;-77
2021/12/17 14:05:10;;;;;;;5.28;3.80;;;;;;;;;;5062339;28;20206;-77
2021/12/17 14:07:38;;;;;;;3.67;3.30;;;;;;;;;;5056924;28;20227;-77
2021/12/17 14:10:08;;;;;;;4.93;4.15;;;;;;;;;;5047405;28;20669;-77
2021/12/17 14:12:38;;;;;;;8.43;4.53;;;;;;;;;;5059760;28;20207;-77
2021/12/17 14:15:06;;;;;;;4.00;3.40;;;;;;;;;;5057367;28;20209;-75
2021/12/17 14:17:34;;;;;;;4.72;3.92;;;;;;;;;;5038817;28;20222;-75
2021/12/17 14:20:11;;;;;;;5.63;4.90;;;;;;;;;;5048913;28;20194;-75
2021/12/17 14:22:39;;;;;;;4.00;3.58;;;;;;;;;;5061808;28;20650;-75
2021/12/17 14:25:25;;;;;;;5.40;4.20;;;;;;;;;;5058834;28;20619;-76
2021/12/17 14:27:53;;;;;;;5.20;3.20;;;;;;;;;;5038289;28;20577;-76
2021/12/17 14:30:23;;;;;;;4.82;4.03;;;;;;;;;;5050511;28;20205;-74
2021/12/17 14:32:50;;;;;;;5.95;4.03;;;;;;;;;;5033938;28;20203;-75
2021/12/17 14:35:39;;;;;;;3.85;3.00;;;;;;;;;;5056215;28;20214;-74
2021/12/17 14:38:06;;;;;;;3.95;3.35;;;;;;;;;;5054043;28;20281;-75
2021/12/17 14:40:40;;;;;;;5.28;3.13;;;;;;;;;;5057533;28;20225;-74
2021/12/17 14:43:19;;;;;;;4.10;3.53;;;;;;;;;;5064292;28;20185;-73
2021/12/17 14:45:52;;;;;;;3.67;3.30;;;;;;;;;;5050889;28;20190;-75
2021/12/17 14:48:24;;;;;;;3.22;2.92;;;;;;;;;;5039734;28;20266;-73
2021/12/17 15:02:27;;;;;;;4.30;3.85;;;;;;;;;;5030328;28;20191;-73
2021/12/17 15:04:54;;;;;;;5.25;4.28;;;;;;;;;;5053878;28;20658;-74
2021/12/17 15:07:23;;;;;;;4.00;3.60;;;;;;;;;;5046715;28;20308;-74
2021/12/17 15:09:50;;;;;;;4.53;4.13;;;;;;;;;;5042306;28;20618;-74
2021/12/17 15:12:37;;;;;;;5.10;3.55;;;;;;;;;;5061880;28;20197;-73
2021/12/17 15:15:06;;;;;;;4.45;4.05;;;;;;;;;;5057353;28;20205;-73
2021/12/17 15:17:33;;;;;;;5.00;3.78;;;;;;;;;;5047620;28;20198;-74
2021/12/17 15:20:00;;;;;;;7.68;3.95;;;;;;;;;;5058500;28;20244;-75
2021/12/17 15:22:29;;;;;;;6.60;4.10;;;;;;;;;;5051426;28;20562;-73
2021/12/17 15:24:56;;;;;;;5.00;4.20;;;;;;;;;;5059510;28;20653;-73
2021/12/17 15:27:24;;;;;;;3.20;2.90;;;;;;;;;;5060661;28;20205;-74
2021/12/17 15:29:51;;;;;;;4.47;3.88;;;;;;;;;;5067740;28;20424;-73
2021/12/17 15:32:18;;;;;;;4.53;3.30;;;;;;;;;;5051661;28;20192;-73
2021/12/17 15:34:45;;;;;;;6.50;3.85;;;;;;;;;;5061490;28;20659;-73
2021/12/17 15:37:12;;;;;;;3.78;3.15;;;;;;;;;;5050278;28;20293;-73
2021/12/17 15:39:41;;;;;;;4.25;3.80;;;;;;;;;;5037429;28;20203;-73
2021/12/17 15:42:09;;;;;;;5.00;3.83;;;;;;;;;;5054970;28;20194;-74
2021/12/17 15:44:37;;;;;;;5.57;3.50;;;;;;;;;;5070813;28;20230;-74
2021/12/17 15:47:06;;;;;;;4.10;3.45;;;;;;;;;;5046783;28;20203;-75
2021/12/17 15:49:33;;;;;;;4.55;3.63;;;;;;;;;;5051351;28;20223;-74
2021/12/17 15:52:00;;;;;;;3.50;3.20;;;;;;;;;;5063546;28;20217;-74
2021/12/17 15:54:27;;;;;;;4.65;3.78;;;;;;;;;;5061937;28;20671;-74
2021/12/17 15:56:56;;;;;;;4.03;3.58;;;;;;;;;;5055321;28;20202;-74
2021/12/17 15:59:23;;;;;;;3.50;3.20;;;;;;;;;;5068918;28;20214;-74
2021/12/17 16:01:50;;;;;;;5.22;4.03;;;;;;;;;;5050832;28;20664;-74
2021/12/17 16:04:17;;;;;;;3.75;3.40;;;;;;;;;;5064620;28;20686;-74
2021/12/17 16:06:45;;;;;;;4.47;2.85;;;;;;;;;;5057596;28;20206;-75
2021/12/17 16:09:32;;;;;;;3.75;3.33;;;;;;;;;;5050019;28;20219;-75
2021/12/17 16:12:06;;;;;;;3.20;2.85;;;;;;;;;;5057043;28;20202;-75
2021/12/17 16:22:53;;;;;;;4.15;3.05;;;;;;;;;;5051097;28;20239;-76
2021/12/17 16:25:22;;;;;;;3.53;2.85;;;;;;;;;;5052952;28;20199;-74
2021/12/17 16:27:50;;;;;;;3.13;2.70;;;;;;;;;;5064724;28;20201;-75
2021/12/17 16:30:17;;;;;;;4.03;3.58;;;;;;;;;;5059083;28;20219;-76
2021/12/17 16:32:44;;;;;;;3.30;3.00;;;;;;;;;;5040086;28;20654;-74
2021/12/17 16:35:11;;;;;;;4.78;4.03;;;;;;;;;;5052638;28;20202;-76
2021/12/17 16:37:38;;;;;;;4.80;3.65;;;;;;;;;;5061116;28;20685;-76
2021/12/17 16:40:06;;;;;;;6.80;3.88;;;;;;;;;;5062097;28;20628;-74
2021/12/17 16:42:34;;;;;;;4.85;3.55;;;;;;;;;;5055448;28;20206;-75
2021/12/17 16:45:20;;;;;;;3.90;2.97;;;;;;;;;;5049430;28;20202;-76
2021/12/17 16:47:47;;;;;;;6.40;4.03;;;;;;;;;;5051870;28;20203;-76
2021/12/17 16:50:14;;;;;;;4.45;4.05;;;;;;;;;;5052528;28;20223;-75
2021/12/17 16:52:41;;;;;;;5.18;3.88;;;;;;;;;;5064083;28;20191;-75
2021/12/17 16:55:09;;;;;;;4.40;3.97;;;;;;;;;;5048464;28;20203;-75
2021/12/17 16:57:36;;;;;;;5.57;3.95;;;;;;;;;;5060076;28;21950;-76
2021/12/17 17:00:06;;;;;;;6.07;4.03;;;;;;;;;;5059783;28;20222;-76
2021/12/17 17:02:33;;;;;;;10.75;5.40;;;;;;;;;;5050988;28;20214;-76